sensor_id;sensor_type;location;lat;lon;timestamp;pressure;altitude;pressure_sealevel;temperature
23208;BMP180;11773;52.570;13.052;2022-11-14T00:00:11;102061.00;;;12.20
23208;BMP180;11773;52.570;13.052;2022-11-14T00:02:40;102045.00;;;12.20
23208;BMP180;11773;52.570;13.052;2022-11-14T00:05:10;102051.00;;;12.20
23208;BMP180;11773;52.570;13.052;2022-11-14T00:07:39;102042.00;;;12.30
23208;BMP180;11773;52.570;13.052;2022-11-14T00:10:09;102042.00;;;12.20
23208;BMP180;11773;52.570;13.052;2022-11-14T00:12:38;102057.00;;;12.30
23208;BMP180;11773;52.570;13.052;2022-11-14T00:15:09;102053.00;;;12.30
23208;BMP180;11773;52.570;13.052;2022-11-14T00:17:38;102041.00;;;12.30
23208;BMP180;11773;52.570;13.052;2022-11-14T00:20:10;102049.00;;;12.20
23208;BMP180;11773;52.570;13.052;2022-11-14T00:22:40;102041.00;;;12.20
23208;BMP180;11773;52.570;13.052;2022-11-14T00:25:10;102031.00;;;12.20
23208;BMP180;11773;52.570;13.052;2022-11-14T00:27:40;102033.00;;;12.30
23208;BMP180;11773;52.570;13.052;2022-11-14T00:30:10;102021.00;;;12.20
23208;BMP180;11773;52.570;13.052;2022-11-14T00:32:39;102036.00;;;12.30
23208;BMP180;11773;52.570;13.052;2022-11-14T00:35:09;102022.00;;;12.20
23208;BMP180;11773;52.570;13.052;2022-11-14T00:37:39;102016.00;;;12.20
23208;BMP180;11773;52.570;13.052;2022-11-14T00:40:09;102011.00;;;12.20
23208;BMP180;11773;52.570;13.052;2022-11-14T00:42:38;102010.00;;;12.20
23208;BMP180;11773;52.570;13.052;2022-11-14T00:45:08;102012.00;;;12.30
23208;BMP180;11773;52.570;13.052;2022-11-14T00:47:38;102017.00;;;12.30
23208;BMP180;11773;52.570;13.052;2022-11-14T00:50:08;102011.00;;;12.30
23208;BMP180;11773;52.570;13.052;2022-11-14T00:52:38;102015.00;;;12.30
23208;BMP180;11773;52.570;13.052;2022-11-14T00:55:08;102006.00;;;12.20
23208;BMP180;11773;52.570;13.052;2022-11-14T00:57:37;102011.00;;;12.30
23208;BMP180;11773;52.570;13.052;2022-11-14T01:00:10;102000.00;;;12.30
23208;BMP180;11773;52.570;13.052;2022-11-14T01:02:58;101999.00;;;12.20
23208;BMP180;11773;52.570;13.052;2022-11-14T01:05:28;102005.00;;;12.20
23208;BMP180;11773;52.570;13.052;2022-11-14T01:07:57;101994.00;;;12.20
23208;BMP180;11773;52.570;13.052;2022-11-14T01:10:27;101998.00;;;12.20
23208;BMP180;11773;52.570;13.052;2022-11-14T01:12:56;101988.00;;;12.20
23208;BMP180;11773;52.570;13.052;2022-11-14T01:15:26;101991.00;;;12.20
23208;BMP180;11773;52.570;13.052;2022-11-14T01:17:55;101985.00;;;12.20
23208;BMP180;11773;52.570;13.052;2022-11-14T01:20:25;101978.00;;;12.20
23208;BMP180;11773;52.570;13.052;2022-11-14T01:22:54;101972.00;;;12.20
23208;BMP180;11773;52.570;13.052;2022-11-14T01:25:24;101978.00;;;12.20
23208;BMP180;11773;52.570;13.052;2022-11-14T01:27:53;101980.00;;;12.20
23208;BMP180;11773;52.570;13.052;2022-11-14T01:30:23;101980.00;;;12.20
23208;BMP180;11773;52.570;13.052;2022-11-14T01:32:52;101962.00;;;12.10
23208;BMP180;11773;52.570;13.052;2022-11-14T01:35:22;101958.00;;;12.10
23208;BMP180;11773;52.570;13.052;2022-11-14T01:37:51;101956.00;;;12.10
23208;BMP180;11773;52.570;13.052;2022-11-14T01:40:21;101946.00;;;12.10
23208;BMP180;11773;52.570;13.052;2022-11-14T01:43:23;101951.00;;;12.00
23208;BMP180;11773;52.570;13.052;2022-11-14T01:46:05;101951.00;;;12.00
23208;BMP180;11773;52.570;13.052;2022-11-14T01:48:49;101938.00;;;11.90
23208;BMP180;11773;52.570;13.052;2022-11-14T01:51:38;101939.00;;;11.90
23208;BMP180;11773;52.570;13.052;2022-11-14T01:54:27;101934.00;;;11.90
23208;BMP180;11773;52.570;13.052;2022-11-14T01:57:02;101942.00;;;11.80
23208;BMP180;11773;52.570;13.052;2022-11-14T01:59:37;101937.00;;;11.80
23208;BMP180;11773;52.570;13.052;2022-11-14T02:02:18;101924.00;;;11.80
23208;BMP180;11773;52.570;13.052;2022-11-14T02:04:46;101923.00;;;11.80
23208;BMP180;11773;52.570;13.052;2022-11-14T02:07:16;101923.00;;;11.80
23208;BMP180;11773;52.570;13.052;2022-11-14T02:09:48;101917.00;;;11.80
23208;BMP180;11773;52.570;13.052;2022-11-14T02:12:19;101908.00;;;11.80
23208;BMP180;11773;52.570;13.052;2022-11-14T02:14:53;101924.00;;;11.80
23208;BMP180;11773;52.570;13.052;2022-11-14T02:17:24;101895.00;;;11.80
23208;BMP180;11773;52.570;13.052;2022-11-14T02:22:42;101908.00;;;11.80
23208;BMP180;11773;52.570;13.052;2022-11-14T02:25:15;101893.00;;;11.80
23208;BMP180;11773;52.570;13.052;2022-11-14T02:27:46;101891.00;;;11.80
23208;BMP180;11773;52.570;13.052;2022-11-14T02:30:20;101886.00;;;11.80
23208;BMP180;11773;52.570;13.052;2022-11-14T02:32:50;101889.00;;;11.90
23208;BMP180;11773;52.570;13.052;2022-11-14T02:35:21;101897.00;;;11.90
23208;BMP180;11773;52.570;13.052;2022-11-14T02:37:51;101890.00;;;11.90
23208;BMP180;11773;52.570;13.052;2022-11-14T02:40:20;101889.00;;;11.90
23208;BMP180;11773;52.570;13.052;2022-11-14T02:42:50;101882.00;;;11.90
23208;BMP180;11773;52.570;13.052;2022-11-14T02:45:19;101889.00;;;11.90
23208;BMP180;11773;52.570;13.052;2022-11-14T02:47:49;101883.00;;;11.90
23208;BMP180;11773;52.570;13.052;2022-11-14T02:50:18;101893.00;;;11.90
23208;BMP180;11773;52.570;13.052;2022-11-14T02:52:48;101890.00;;;11.90
23208;BMP180;11773;52.570;13.052;2022-11-14T02:55:17;101889.00;;;11.90
23208;BMP180;11773;52.570;13.052;2022-11-14T02:57:47;101865.00;;;11.90
23208;BMP180;11773;52.570;13.052;2022-11-14T03:00:17;101876.00;;;11.80
23208;BMP180;11773;52.570;13.052;2022-11-14T03:02:47;101874.00;;;11.90
23208;BMP180;11773;52.570;13.052;2022-11-14T03:05:16;101861.00;;;11.80
23208;BMP180;11773;52.570;13.052;2022-11-14T03:07:46;101864.00;;;11.90
23208;BMP180;11773;52.570;13.052;2022-11-14T03:10:15;101875.00;;;11.90
23208;BMP180;11773;52.570;13.052;2022-11-14T03:12:45;101852.00;;;11.90
23208;BMP180;11773;52.570;13.052;2022-11-14T03:15:14;101849.00;;;11.90
23208;BMP180;11773;52.570;13.052;2022-11-14T03:17:43;101855.00;;;11.90
23208;BMP180;11773;52.570;13.052;2022-11-14T03:20:13;101852.00;;;11.90
23208;BMP180;11773;52.570;13.052;2022-11-14T03:22:42;101844.00;;;11.90
23208;BMP180;11773;52.570;13.052;2022-11-14T03:25:12;101848.00;;;12.00
23208;BMP180;11773;52.570;13.052;2022-11-14T03:27:41;101846.00;;;11.90
23208;BMP180;11773;52.570;13.052;2022-11-14T03:30:11;101835.00;;;11.90
23208;BMP180;11773;52.570;13.052;2022-11-14T03:32:41;101849.00;;;12.00
23208;BMP180;11773;52.570;13.052;2022-11-14T03:35:11;101836.00;;;12.00
23208;BMP180;11773;52.570;13.052;2022-11-14T03:37:40;101854.00;;;12.00
23208;BMP180;11773;52.570;13.052;2022-11-14T03:40:10;101839.00;;;12.00
23208;BMP180;11773;52.570;13.052;2022-11-14T03:42:40;101832.00;;;12.00
23208;BMP180;11773;52.570;13.052;2022-11-14T03:45:10;101831.00;;;12.00
23208;BMP180;11773;52.570;13.052;2022-11-14T03:47:39;101831.00;;;12.00
23208;BMP180;11773;52.570;13.052;2022-11-14T03:50:09;101825.00;;;12.00
23208;BMP180;11773;52.570;13.052;2022-11-14T03:52:38;101826.00;;;12.00
23208;BMP180;11773;52.570;13.052;2022-11-14T03:55:08;101817.00;;;12.00
23208;BMP180;11773;52.570;13.052;2022-11-14T03:57:37;101821.00;;;12.00
23208;BMP180;11773;52.570;13.052;2022-11-14T04:00:08;101823.00;;;12.00
23208;BMP180;11773;52.570;13.052;2022-11-14T04:02:38;101813.00;;;11.90
23208;BMP180;11773;52.570;13.052;2022-11-14T04:05:08;101812.00;;;11.90
23208;BMP180;11773;52.570;13.052;2022-11-14T04:07:37;101823.00;;;11.90
23208;BMP180;11773;52.570;13.052;2022-11-14T04:10:07;101809.00;;;11.90
23208;BMP180;11773;52.570;13.052;2022-11-14T04:12:36;101809.00;;;11.90
23208;BMP180;11773;52.570;13.052;2022-11-14T04:15:06;101801.00;;;11.90
23208;BMP180;11773;52.570;13.052;2022-11-14T04:17:36;101796.00;;;11.90
23208;BMP180;11773;52.570;13.052;2022-11-14T04:20:07;101802.00;;;11.90
23208;BMP180;11773;52.570;13.052;2022-11-14T04:22:37;101794.00;;;11.90
23208;BMP180;11773;52.570;13.052;2022-11-14T04:25:08;101787.00;;;11.90
23208;BMP180;11773;52.570;13.052;2022-11-14T04:27:38;101798.00;;;11.90
23208;BMP180;11773;52.570;13.052;2022-11-14T04:30:09;101798.00;;;11.90
23208;BMP180;11773;52.570;13.052;2022-11-14T04:32:39;101790.00;;;11.90
23208;BMP180;11773;52.570;13.052;2022-11-14T04:35:09;101796.00;;;11.90
23208;BMP180;11773;52.570;13.052;2022-11-14T04:37:38;101798.00;;;11.90
23208;BMP180;11773;52.570;13.052;2022-11-14T04:40:08;101787.00;;;11.90
23208;BMP180;11773;52.570;13.052;2022-11-14T04:42:38;101785.00;;;11.90
23208;BMP180;11773;52.570;13.052;2022-11-14T04:45:08;101802.00;;;11.90
23208;BMP180;11773;52.570;13.052;2022-11-14T04:47:40;101788.00;;;11.90
23208;BMP180;11773;52.570;13.052;2022-11-14T04:50:10;101783.00;;;11.90
23208;BMP180;11773;52.570;13.052;2022-11-14T04:52:39;101784.00;;;11.90
23208;BMP180;11773;52.570;13.052;2022-11-14T04:55:09;101788.00;;;11.90
23208;BMP180;11773;52.570;13.052;2022-11-14T04:57:38;101787.00;;;11.90
23208;BMP180;11773;52.570;13.052;2022-11-14T05:00:09;101798.00;;;11.90
23208;BMP180;11773;52.570;13.052;2022-11-14T05:02:38;101778.00;;;11.80
23208;BMP180;11773;52.570;13.052;2022-11-14T05:05:08;101781.00;;;11.80
23208;BMP180;11773;52.570;13.052;2022-11-14T05:07:38;101769.00;;;11.80
23208;BMP180;11773;52.570;13.052;2022-11-14T05:10:08;101775.00;;;11.80
23208;BMP180;11773;52.570;13.052;2022-11-14T05:12:37;101784.00;;;11.80
23208;BMP180;11773;52.570;13.052;2022-11-14T05:15:08;101795.00;;;11.80
23208;BMP180;11773;52.570;13.052;2022-11-14T05:17:37;101789.00;;;11.80
23208;BMP180;11773;52.570;13.052;2022-11-14T05:20:07;101783.00;;;11.80
23208;BMP180;11773;52.570;13.052;2022-11-14T05:22:37;101772.00;;;11.70
23208;BMP180;11773;52.570;13.052;2022-11-14T05:25:07;101766.00;;;11.70
23208;BMP180;11773;52.570;13.052;2022-11-14T05:27:36;101764.00;;;11.70
23208;BMP180;11773;52.570;13.052;2022-11-14T05:30:07;101767.00;;;11.70
23208;BMP180;11773;52.570;13.052;2022-11-14T05:32:37;101753.00;;;11.60
23208;BMP180;11773;52.570;13.052;2022-11-14T05:35:07;101758.00;;;11.60
23208;BMP180;11773;52.570;13.052;2022-11-14T05:37:56;101761.00;;;11.60
23208;BMP180;11773;52.570;13.052;2022-11-14T05:40:27;101759.00;;;11.50
23208;BMP180;11773;52.570;13.052;2022-11-14T05:42:56;101749.00;;;11.50
23208;BMP180;11773;52.570;13.052;2022-11-14T05:45:26;101745.00;;;11.50
23208;BMP180;11773;52.570;13.052;2022-11-14T05:47:55;101752.00;;;11.40
23208;BMP180;11773;52.570;13.052;2022-11-14T05:50:25;101748.00;;;11.40
23208;BMP180;11773;52.570;13.052;2022-11-14T05:52:56;101748.00;;;11.40
23208;BMP180;11773;52.570;13.052;2022-11-14T05:55:25;101746.00;;;11.40
23208;BMP180;11773;52.570;13.052;2022-11-14T05:57:59;101751.00;;;11.40
23208;BMP180;11773;52.570;13.052;2022-11-14T06:00:29;101745.00;;;11.30
23208;BMP180;11773;52.570;13.052;2022-11-14T06:03:00;101738.00;;;11.30
23208;BMP180;11773;52.570;13.052;2022-11-14T06:05:29;101739.00;;;11.30
23208;BMP180;11773;52.570;13.052;2022-11-14T06:07:59;101744.00;;;11.30
23208;BMP180;11773;52.570;13.052;2022-11-14T06:10:29;101742.00;;;11.30
23208;BMP180;11773;52.570;13.052;2022-11-14T06:12:58;101755.00;;;11.20
23208;BMP180;11773;52.570;13.052;2022-11-14T06:15:28;101740.00;;;11.20
23208;BMP180;11773;52.570;13.052;2022-11-14T06:17:57;101745.00;;;11.20
23208;BMP180;11773;52.570;13.052;2022-11-14T06:20:27;101738.00;;;11.20
23208;BMP180;11773;52.570;13.052;2022-11-14T06:22:56;101744.00;;;11.20
23208;BMP180;11773;52.570;13.052;2022-11-14T06:25:26;101743.00;;;11.20
23208;BMP180;11773;52.570;13.052;2022-11-14T06:27:57;101738.00;;;11.10
23208;BMP180;11773;52.570;13.052;2022-11-14T06:30:27;101735.00;;;11.10
23208;BMP180;11773;52.570;13.052;2022-11-14T06:32:58;101733.00;;;11.10
23208;BMP180;11773;52.570;13.052;2022-11-14T06:35:27;101728.00;;;11.10
23208;BMP180;11773;52.570;13.052;2022-11-14T06:38:01;101732.00;;;11.10
23208;BMP180;11773;52.570;13.052;2022-11-14T06:40:31;101725.00;;;11.10
23208;BMP180;11773;52.570;13.052;2022-11-14T06:43:00;101731.00;;;11.10
23208;BMP180;11773;52.570;13.052;2022-11-14T06:45:30;101725.00;;;11.10
23208;BMP180;11773;52.570;13.052;2022-11-14T06:47:59;101731.00;;;11.10
23208;BMP180;11773;52.570;13.052;2022-11-14T06:50:29;101724.00;;;11.10
23208;BMP180;11773;52.570;13.052;2022-11-14T06:52:58;101741.00;;;11.10
23208;BMP180;11773;52.570;13.052;2022-11-14T06:55:28;101735.00;;;11.00
23208;BMP180;11773;52.570;13.052;2022-11-14T06:57:57;101727.00;;;11.00
23208;BMP180;11773;52.570;13.052;2022-11-14T07:00:27;101730.00;;;11.00
23208;BMP180;11773;52.570;13.052;2022-11-14T07:02:56;101724.00;;;11.00
23208;BMP180;11773;52.570;13.052;2022-11-14T07:05:26;101745.00;;;11.00
23208;BMP180;11773;52.570;13.052;2022-11-14T07:07:57;101747.00;;;11.00
23208;BMP180;11773;52.570;13.052;2022-11-14T07:10:27;101737.00;;;11.00
23208;BMP180;11773;52.570;13.052;2022-11-14T07:12:56;101750.00;;;11.00
23208;BMP180;11773;52.570;13.052;2022-11-14T07:15:26;101744.00;;;11.00
23208;BMP180;11773;52.570;13.052;2022-11-14T07:17:56;101737.00;;;11.00
23208;BMP180;11773;52.570;13.052;2022-11-14T07:20:26;101735.00;;;11.10
23208;BMP180;11773;52.570;13.052;2022-11-14T07:22:55;101734.00;;;11.10
23208;BMP180;11773;52.570;13.052;2022-11-14T07:25:25;101725.00;;;11.10
23208;BMP180;11773;52.570;13.052;2022-11-14T07:27:57;101736.00;;;11.10
23208;BMP180;11773;52.570;13.052;2022-11-14T07:30:26;101734.00;;;11.10
23208;BMP180;11773;52.570;13.052;2022-11-14T07:32:59;101726.00;;;11.10
23208;BMP180;11773;52.570;13.052;2022-11-14T07:35:29;101737.00;;;11.20
23208;BMP180;11773;52.570;13.052;2022-11-14T07:38:03;101728.00;;;11.20
23208;BMP180;11773;52.570;13.052;2022-11-14T07:40:32;101726.00;;;11.20
23208;BMP180;11773;52.570;13.052;2022-11-14T07:43:02;101726.00;;;11.20
23208;BMP180;11773;52.570;13.052;2022-11-14T07:45:32;101729.00;;;11.20
23208;BMP180;11773;52.570;13.052;2022-11-14T07:48:02;101714.00;;;11.20
23208;BMP180;11773;52.570;13.052;2022-11-14T07:50:31;101726.00;;;11.20
23208;BMP180;11773;52.570;13.052;2022-11-14T07:53:01;101717.00;;;11.30
23208;BMP180;11773;52.570;13.052;2022-11-14T07:55:31;101708.00;;;11.30
23208;BMP180;11773;52.570;13.052;2022-11-14T07:58:01;101698.00;;;11.30
23208;BMP180;11773;52.570;13.052;2022-11-14T08:00:30;101711.00;;;11.30
23208;BMP180;11773;52.570;13.052;2022-11-14T08:03:00;101705.00;;;11.40
23208;BMP180;11773;52.570;13.052;2022-11-14T08:05:29;101708.00;;;11.40
23208;BMP180;11773;52.570;13.052;2022-11-14T08:07:59;101706.00;;;11.40
23208;BMP180;11773;52.570;13.052;2022-11-14T08:10:29;101693.00;;;11.40
23208;BMP180;11773;52.570;13.052;2022-11-14T08:13:04;101702.00;;;11.50
23208;BMP180;11773;52.570;13.052;2022-11-14T08:15:37;101697.00;;;11.50
23208;BMP180;11773;52.570;13.052;2022-11-14T08:18:06;101693.00;;;11.50
23208;BMP180;11773;52.570;13.052;2022-11-14T08:20:36;101692.00;;;11.60
23208;BMP180;11773;52.570;13.052;2022-11-14T08:23:06;101712.00;;;11.60
23208;BMP180;11773;52.570;13.052;2022-11-14T08:25:36;101710.00;;;11.70
23208;BMP180;11773;52.570;13.052;2022-11-14T08:28:06;101695.00;;;11.70
23208;BMP180;11773;52.570;13.052;2022-11-14T08:30:36;101691.00;;;11.70
23208;BMP180;11773;52.570;13.052;2022-11-14T08:33:06;101710.00;;;11.80
23208;BMP180;11773;52.570;13.052;2022-11-14T08:35:36;101688.00;;;11.80
23208;BMP180;11773;52.570;13.052;2022-11-14T08:38:05;101712.00;;;11.80
23208;BMP180;11773;52.570;13.052;2022-11-14T08:40:34;101689.00;;;11.90
23208;BMP180;11773;52.570;13.052;2022-11-14T08:43:04;101697.00;;;11.90
23208;BMP180;11773;52.570;13.052;2022-11-14T08:45:33;101681.00;;;12.00
23208;BMP180;11773;52.570;13.052;2022-11-14T08:48:03;101677.00;;;12.00
23208;BMP180;11773;52.570;13.052;2022-11-14T08:50:33;101672.00;;;12.00
23208;BMP180;11773;52.570;13.052;2022-11-14T08:53:02;101671.00;;;12.10
23208;BMP180;11773;52.570;13.052;2022-11-14T08:55:32;101678.00;;;12.20
23208;BMP180;11773;52.570;13.052;2022-11-14T08:58:02;101675.00;;;12.20
23208;BMP180;11773;52.570;13.052;2022-11-14T09:00:31;101689.00;;;12.30
23208;BMP180;11773;52.570;13.052;2022-11-14T09:03:05;101671.00;;;12.30
23208;BMP180;11773;52.570;13.052;2022-11-14T09:05:32;101674.00;;;12.40
23208;BMP180;11773;52.570;13.052;2022-11-14T09:08:02;101674.00;;;12.40
23208;BMP180;11773;52.570;13.052;2022-11-14T09:10:33;101676.00;;;12.50
23208;BMP180;11773;52.570;13.052;2022-11-14T09:13:02;101679.00;;;12.50
23208;BMP180;11773;52.570;13.052;2022-11-14T09:15:32;101674.00;;;12.60
23208;BMP180;11773;52.570;13.052;2022-11-14T09:18:02;101670.00;;;12.60
23208;BMP180;11773;52.570;13.052;2022-11-14T09:20:32;101676.00;;;12.70
23208;BMP180;11773;52.570;13.052;2022-11-14T09:23:04;101678.00;;;12.70
23208;BMP180;11773;52.570;13.052;2022-11-14T09:25:35;101682.00;;;12.80
23208;BMP180;11773;52.570;13.052;2022-11-14T09:28:08;101681.00;;;12.80
23208;BMP180;11773;52.570;13.052;2022-11-14T09:30:38;101682.00;;;12.80
23208;BMP180;11773;52.570;13.052;2022-11-14T09:33:09;101669.00;;;12.80
23208;BMP180;11773;52.570;13.052;2022-11-14T09:35:40;101677.00;;;12.90
23208;BMP180;11773;52.570;13.052;2022-11-14T09:38:11;101676.00;;;12.90
23208;BMP180;11773;52.570;13.052;2022-11-14T09:43:52;101673.00;;;12.90
23208;BMP180;11773;52.570;13.052;2022-11-14T09:46:27;101679.00;;;12.90
23208;BMP180;11773;52.570;13.052;2022-11-14T09:48:57;101683.00;;;12.90
23208;BMP180;11773;52.570;13.052;2022-11-14T09:51:34;101681.00;;;13.00
23208;BMP180;11773;52.570;13.052;2022-11-14T09:54:23;101674.00;;;13.00
23208;BMP180;11773;52.570;13.052;2022-11-14T09:56:54;101666.00;;;13.00
23208;BMP180;11773;52.570;13.052;2022-11-14T09:59:26;101667.00;;;13.00
23208;BMP180;11773;52.570;13.052;2022-11-14T10:02:22;101662.00;;;13.10
23208;BMP180;11773;52.570;13.052;2022-11-14T10:05:08;101650.00;;;13.10
23208;BMP180;11773;52.570;13.052;2022-11-14T10:10:49;101643.00;;;13.10
23208;BMP180;11773;52.570;13.052;2022-11-14T10:19:39;101637.00;;;13.20
23208;BMP180;11773;52.570;13.052;2022-11-14T10:25:28;101636.00;;;13.30
23208;BMP180;11773;52.570;13.052;2022-11-14T10:31:34;101650.00;;;13.40
23208;BMP180;11773;52.570;13.052;2022-11-14T10:34:38;101632.00;;;13.40
23208;BMP180;11773;52.570;13.052;2022-11-14T10:40:24;101606.00;;;13.50
23208;BMP180;11773;52.570;13.052;2022-11-14T10:43:01;101601.00;;;13.60
23208;BMP180;11773;52.570;13.052;2022-11-14T10:45:40;101605.00;;;13.70
23208;BMP180;11773;52.570;13.052;2022-11-14T10:48:30;101618.00;;;13.80
23208;BMP180;11773;52.570;13.052;2022-11-14T10:54:30;101596.00;;;13.80
23208;BMP180;11773;52.570;13.052;2022-11-14T10:57:12;101605.00;;;13.90
23208;BMP180;11773;52.570;13.052;2022-11-14T10:59:36;101608.00;;;13.90
23208;BMP180;11773;52.570;13.052;2022-11-14T11:02:06;101599.00;;;14.00
23208;BMP180;11773;52.570;13.052;2022-11-14T11:04:38;101581.00;;;14.10
23208;BMP180;11773;52.570;13.052;2022-11-14T11:09:47;101594.00;;;14.10
23208;BMP180;11773;52.570;13.052;2022-11-14T11:12:48;101597.00;;;14.20
23208;BMP180;11773;52.570;13.052;2022-11-14T11:15:29;101580.00;;;14.20
23208;BMP180;11773;52.570;13.052;2022-11-14T11:18:02;101595.00;;;14.30
23208;BMP180;11773;52.570;13.052;2022-11-14T11:20:39;101582.00;;;14.30
23208;BMP180;11773;52.570;13.052;2022-11-14T11:23:23;101580.00;;;14.40
23208;BMP180;11773;52.570;13.052;2022-11-14T11:31:58;101553.00;;;14.50
23208;BMP180;11773;52.570;13.052;2022-11-14T11:34:31;101574.00;;;14.50
23208;BMP180;11773;52.570;13.052;2022-11-14T11:37:20;101571.00;;;14.50
23208;BMP180;11773;52.570;13.052;2022-11-14T11:39:55;101559.00;;;14.50
23208;BMP180;11773;52.570;13.052;2022-11-14T11:43:02;101559.00;;;14.60
23208;BMP180;11773;52.570;13.052;2022-11-14T11:45:36;101550.00;;;14.60
23208;BMP180;11773;52.570;13.052;2022-11-14T11:48:18;101543.00;;;14.60
23208;BMP180;11773;52.570;13.052;2022-11-14T11:50:49;101557.00;;;14.70
23208;BMP180;11773;52.570;13.052;2022-11-14T11:53:30;101534.00;;;14.70
23208;BMP180;11773;52.570;13.052;2022-11-14T11:56:21;101528.00;;;14.70
23208;BMP180;11773;52.570;13.052;2022-11-14T11:59:13;101529.00;;;14.80
23208;BMP180;11773;52.570;13.052;2022-11-14T12:01:24;101516.00;;;14.80
23208;BMP180;11773;52.570;13.052;2022-11-14T12:03:54;101529.00;;;14.90
23208;BMP180;11773;52.570;13.052;2022-11-14T12:06:25;101535.00;;;14.90
23208;BMP180;11773;52.570;13.052;2022-11-14T12:09:18;101529.00;;;14.90
23208;BMP180;11773;52.570;13.052;2022-11-14T12:12:00;101543.00;;;15.00
23208;BMP180;11773;52.570;13.052;2022-11-14T12:14:52;101552.00;;;15.00
23208;BMP180;11773;52.570;13.052;2022-11-14T12:21:09;101547.00;;;15.00
23208;BMP180;11773;52.570;13.052;2022-11-14T12:32:26;101543.00;;;15.00
23208;BMP180;11773;52.570;13.052;2022-11-14T12:34:52;101540.00;;;15.10
23208;BMP180;11773;52.570;13.052;2022-11-14T12:37:30;101535.00;;;15.10
23208;BMP180;11773;52.570;13.052;2022-11-14T12:40:03;101528.00;;;15.10
23208;BMP180;11773;52.570;13.052;2022-11-14T12:42:33;101533.00;;;15.10
23208;BMP180;11773;52.570;13.052;2022-11-14T12:45:13;101545.00;;;15.20
23208;BMP180;11773;52.570;13.052;2022-11-14T12:47:34;101531.00;;;15.20
23208;BMP180;11773;52.570;13.052;2022-11-14T12:50:38;101535.00;;;15.20
23208;BMP180;11773;52.570;13.052;2022-11-14T12:52:58;101517.00;;;15.10
23208;BMP180;11773;52.570;13.052;2022-11-14T12:58:27;101525.00;;;15.20
23208;BMP180;11773;52.570;13.052;2022-11-14T13:01:18;101533.00;;;15.10
23208;BMP180;11773;52.570;13.052;2022-11-14T13:07:02;101524.00;;;15.10
23208;BMP180;11773;52.570;13.052;2022-11-14T13:12:35;101519.00;;;15.00
23208;BMP180;11773;52.570;13.052;2022-11-14T13:15:35;101514.00;;;15.00
23208;BMP180;11773;52.570;13.052;2022-11-14T13:18:24;101524.00;;;15.00
23208;BMP180;11773;52.570;13.052;2022-11-14T13:21:28;101510.00;;;15.00
23208;BMP180;11773;52.570;13.052;2022-11-14T13:24:18;101502.00;;;15.10
23208;BMP180;11773;52.570;13.052;2022-11-14T13:26:54;101505.00;;;15.10
23208;BMP180;11773;52.570;13.052;2022-11-14T13:35:49;101487.00;;;15.10
23208;BMP180;11773;52.570;13.052;2022-11-14T13:41:57;101483.00;;;15.00
23208;BMP180;11773;52.570;13.052;2022-11-14T13:47:29;101489.00;;;15.00
23208;BMP180;11773;52.570;13.052;2022-11-14T13:50:15;101472.00;;;15.00
23208;BMP180;11773;52.570;13.052;2022-11-14T13:52:47;101486.00;;;15.00
23208;BMP180;11773;52.570;13.052;2022-11-14T13:58:31;101485.00;;;15.00
23208;BMP180;11773;52.570;13.052;2022-11-14T14:01:31;101470.00;;;15.00
23208;BMP180;11773;52.570;13.052;2022-11-14T14:04:22;101475.00;;;15.00
23208;BMP180;11773;52.570;13.052;2022-11-14T14:10:02;101471.00;;;14.90
23208;BMP180;11773;52.570;13.052;2022-11-14T14:15:41;101470.00;;;14.90
23208;BMP180;11773;52.570;13.052;2022-11-14T14:24:08;101470.00;;;14.90
23208;BMP180;11773;52.570;13.052;2022-11-14T14:26:50;101464.00;;;14.90
23208;BMP180;11773;52.570;13.052;2022-11-14T14:29:28;101471.00;;;14.90
23208;BMP180;11773;52.570;13.052;2022-11-14T14:32:17;101453.00;;;14.90
23208;BMP180;11773;52.570;13.052;2022-11-14T14:34:47;101457.00;;;14.90
23208;BMP180;11773;52.570;13.052;2022-11-14T14:37:24;101451.00;;;14.90
23208;BMP180;11773;52.570;13.052;2022-11-14T14:40:04;101452.00;;;15.00
23208;BMP180;11773;52.570;13.052;2022-11-14T14:42:44;101466.00;;;15.00
23208;BMP180;11773;52.570;13.052;2022-11-14T14:45:18;101445.00;;;15.00
23208;BMP180;11773;52.570;13.052;2022-11-14T14:48:04;101455.00;;;15.00
23208;BMP180;11773;52.570;13.052;2022-11-14T14:50:50;101463.00;;;15.00
23208;BMP180;11773;52.570;13.052;2022-11-14T14:53:29;101456.00;;;15.00
23208;BMP180;11773;52.570;13.052;2022-11-14T14:56:18;101445.00;;;15.00
23208;BMP180;11773;52.570;13.052;2022-11-14T14:58:38;101441.00;;;15.00
23208;BMP180;11773;52.570;13.052;2022-11-14T15:01:11;101448.00;;;15.00
23208;BMP180;11773;52.570;13.052;2022-11-14T15:03:51;101436.00;;;15.10
23208;BMP180;11773;52.570;13.052;2022-11-14T15:06:37;101431.00;;;15.10
23208;BMP180;11773;52.570;13.052;2022-11-14T15:09:13;101430.00;;;15.10
23208;BMP180;11773;52.570;13.052;2022-11-14T15:11:50;101437.00;;;15.00
23208;BMP180;11773;52.570;13.052;2022-11-14T15:14:31;101441.00;;;15.10
23208;BMP180;11773;52.570;13.052;2022-11-14T15:17:04;101431.00;;;15.10
23208;BMP180;11773;52.570;13.052;2022-11-14T15:19:45;101428.00;;;15.10
23208;BMP180;11773;52.570;13.052;2022-11-14T15:22:24;101426.00;;;15.10
23208;BMP180;11773;52.570;13.052;2022-11-14T15:27:52;101416.00;;;15.00
23208;BMP180;11773;52.570;13.052;2022-11-14T15:30:29;101417.00;;;15.00
23208;BMP180;11773;52.570;13.052;2022-11-14T15:33:04;101411.00;;;15.00
23208;BMP180;11773;52.570;13.052;2022-11-14T15:35:37;101411.00;;;15.00
23208;BMP180;11773;52.570;13.052;2022-11-14T15:43:45;101407.00;;;14.90
23208;BMP180;11773;52.570;13.052;2022-11-14T15:49:09;101411.00;;;14.80
23208;BMP180;11773;52.570;13.052;2022-11-14T15:51:50;101420.00;;;14.80
23208;BMP180;11773;52.570;13.052;2022-11-14T15:54:30;101420.00;;;14.80